Time;durP1;ratioP1;P1;durP2;ratioP2;P2;SDS_P1;SDS_P2;PMS_P1;PMS_P2;Temp;Humidity;BMP_temperature;BMP_pressure;BME280_temperature;BME280_humidity;BME280_pressure;Samples;Min_cycle;Max_cycle;Signal;HPM_P1;HPM_P2
2022/03/16 00:00:04;;;;;;;68.50;36.70;;;;;;;-139.48;100.00;61774.03;5019040;28;20099;-71
2022/03/16 00:02:48;;;;;;;73.03;37.20;;;;;;;-139.48;100.00;61774.03;5034110;28;20134;-72
2022/03/16 00:05:32;;;;;;;78.38;36.88;;;;;;;-139.48;100.00;61774.03;5005055;28;20052;-70
2022/03/16 00:08:16;;;;;;;72.03;35.53;;;;;;;-139.48;100.00;61774.03;5019004;28;20048;-71
2022/03/16 00:11:00;;;;;;;59.05;34.10;;;;;;;-139.48;100.00;61774.03;5018920;28;20040;-71
2022/03/16 00:13:44;;;;;;;74.78;37.38;;;;;;;-139.48;100.00;61774.03;5018586;28;20052;-71
2022/03/16 00:16:28;;;;;;;71.97;35.78;;;;;;;-139.48;100.00;61774.03;5018818;28;20056;-71
2022/03/16 00:19:12;;;;;;;83.32;39.17;;;;;;;-139.48;100.00;61774.03;5033557;28;20052;-71
2022/03/16 00:22:00;;;;;;;64.85;34.13;;;;;;;-139.48;100.00;61774.03;5004849;28;20235;-70
2022/03/16 00:24:44;;;;;;;69.85;36.17;;;;;;;-139.48;100.00;61774.03;5033439;28;20052;-71
2022/03/16 00:27:28;;;;;;;64.53;34.80;;;;;;;-139.48;100.00;61774.03;5033396;28;20053;-70
2022/03/16 00:30:12;;;;;;;69.97;35.97;;;;;;;-139.48;100.00;61774.03;5018615;28;20072;-71
2022/03/16 00:32:56;;;;;;;73.47;36.38;;;;;;;-139.48;100.00;61774.03;5018661;28;20111;-70
2022/03/16 00:35:40;;;;;;;74.40;36.75;;;;;;;-139.48;100.00;61774.03;5018223;28;20128;-71
2022/03/16 00:38:24;;;;;;;70.85;36.45;;;;;;;-139.48;100.00;61774.03;5018441;28;20421;-71
2022/03/16 00:41:08;;;;;;;;;;;;;;;-139.48;100.00;61774.03;5032794;28;20142;-71
2022/03/16 00:43:53;;;;;;;64.33;33.87;;;;;;;-139.48;100.00;61774.03;5033324;28;19920;-71
2022/03/16 00:46:37;;;;;;;70.10;37.42;;;;;;;-139.48;100.00;61774.03;5018372;28;20048;-71
2022/03/16 00:49:21;;;;;;;68.95;36.00;;;;;;;-139.48;100.00;61774.03;5033101;28;20500;-71
2022/03/16 00:52:05;;;;;;;71.03;37.67;;;;;;;-139.48;100.00;61774.03;5018099;28;20043;-70
2022/03/16 00:54:49;;;;;;;76.40;38.47;;;;;;;-139.48;100.00;61774.03;5018053;28;20052;-71
2022/03/16 00:57:33;;;;;;;75.63;37.63;;;;;;;-139.48;100.00;61774.03;5017993;28;20052;-71
2022/03/16 01:00:17;;;;;;;77.20;36.85;;;;;;;-139.48;100.00;61774.03;5032815;28;20052;-71
2022/03/16 01:03:01;;;;;;;;;;;;;;;-139.48;100.00;61774.03;5033215;28;20068;-71
2022/03/16 01:05:46;;;;;;;74.90;36.97;;;;;;;-139.48;100.00;61774.03;5018104;28;20383;-71
2022/03/16 01:08:30;;;;;;;75.72;36.15;;;;;;;-139.48;100.00;61774.03;5032748;28;20045;-71
2022/03/16 01:11:15;;;;;;;78.68;39.65;;;;;;;-139.48;100.00;61774.03;5033271;28;20107;-71
2022/03/16 01:13:59;;;;;;;79.18;37.95;;;;;;;-139.48;100.00;61774.03;5017785;28;20060;-71
2022/03/16 01:16:43;;;;;;;77.28;39.17;;;;;;;-139.48;100.00;61774.03;5017706;28;20150;-71
2022/03/16 01:19:28;;;;;;;76.53;38.72;;;;;;;-139.48;100.00;61774.03;5017678;28;20052;-71
2022/03/16 01:22:11;;;;;;;72.57;38.28;;;;;;;-139.48;100.00;61774.03;5032596;28;20067;-71
2022/03/16 01:24:55;;;;;;;75.25;40.00;;;;;;;-139.48;100.00;61774.03;5032839;28;20084;-71
2022/03/16 01:27:39;;;;;;;72.35;35.88;;;;;;;-139.48;100.00;61774.03;5032629;28;20138;-71
2022/03/16 01:30:23;;;;;;;79.80;40.90;;;;;;;-139.48;100.00;61774.03;5032804;28;20047;-70
2022/03/16 01:33:07;;;;;;;75.53;39.00;;;;;;;-139.48;100.00;61774.03;5017653;28;20095;-71
2022/03/16 01:35:51;;;;;;;77.82;40.20;;;;;;;-139.48;100.00;61774.03;5017556;28;20083;-72
2022/03/16 01:38:35;;;;;;;77.40;39.28;;;;;;;-139.48;100.00;61774.03;5017804;28;20052;-71
2022/03/16 01:41:18;;;;;;;82.78;39.17;;;;;;;-139.48;100.00;61774.03;5032342;28;20115;-71
2022/03/16 01:44:03;;;;;;;79.47;37.83;;;;;;;-139.48;100.00;61774.03;5017586;28;20100;-71
2022/03/16 01:46:47;;;;;;;77.72;37.95;;;;;;;-139.48;100.00;61774.03;5032359;28;20051;-71
2022/03/16 01:49:31;;;;;;;77.25;38.58;;;;;;;-139.48;100.00;61774.03;5017706;28;20444;-71
2022/03/16 01:52:18;;;;;;;82.60;39.00;;;;;;;-139.48;100.00;61774.03;5033439;28;20044;-70
2022/03/16 01:55:05;;;;;;;73.70;37.28;;;;;;;-139.48;100.00;61774.03;5021452;28;20123;-71
2022/03/16 01:57:48;;;;;;;71.45;37.00;;;;;;;-139.48;100.00;61774.03;5036491;28;20235;-71
2022/03/16 02:00:33;;;;;;;75.85;39.40;;;;;;;-139.48;100.00;61774.03;5021456;28;20520;-71
2022/03/16 02:03:16;;;;;;;81.03;41.38;;;;;;;-139.48;100.00;61774.03;5021324;28;20516;-71
2022/03/16 02:06:00;;;;;;;77.47;39.10;;;;;;;-139.48;100.00;61774.03;5036078;28;20044;-71
2022/03/16 02:08:45;;;;;;;77.18;37.72;;;;;;;-139.48;100.00;61774.03;5021161;28;20052;-71
2022/03/16 02:11:29;;;;;;;79.65;39.75;;;;;;;-139.48;100.00;61774.03;5021194;28;20460;-71
2022/03/16 02:14:13;;;;;;;79.13;39.40;;;;;;;-139.48;100.00;61774.03;5020776;28;20088;-71
2022/03/16 02:16:58;;;;;;;83.63;42.15;;;;;;;-139.48;100.00;61774.03;5036104;28;20056;-71
2022/03/16 02:19:42;;;;;;;72.53;37.05;;;;;;;-139.48;100.00;61774.03;5007470;28;20044;-71
2022/03/16 02:22:28;;;;;;;73.70;37.55;;;;;;;-139.48;100.00;61774.03;5035707;28;20452;-71
2022/03/16 02:25:12;;;;;;;77.30;38.20;;;;;;;-139.48;100.00;61774.03;5020794;28;20052;-71
2022/03/16 02:27:58;;;;;;;76.65;38.22;;;;;;;-139.48;100.00;61774.03;5035677;28;20421;-72
2022/03/16 02:30:42;;;;;;;76.95;38.53;;;;;;;-139.48;100.00;61774.03;5006909;28;20071;-71
2022/03/16 02:33:26;;;;;;;78.68;39.20;;;;;;;-139.48;100.00;61774.03;5020649;28;20417;-70
2022/03/16 02:36:10;;;;;;;76.93;35.22;;;;;;;-139.48;100.00;61774.03;5035641;28;20528;-70
2022/03/16 02:38:54;;;;;;;75.13;38.13;;;;;;;-139.48;100.00;61774.03;5035692;28;20056;-71
2022/03/16 02:41:38;;;;;;;76.72;37.20;;;;;;;-139.48;100.00;61774.03;5020631;28;20511;-71
2022/03/16 02:44:21;;;;;;;75.72;37.38;;;;;;;-139.48;100.00;61774.03;5035301;28;20540;-71
2022/03/16 02:47:05;;;;;;;78.53;38.38;;;;;;;-139.48;100.00;61774.03;5035543;28;20099;-71
2022/03/16 02:49:49;;;;;;;76.07;36.83;;;;;;;-139.48;100.00;61774.03;5020517;28;20559;-71
2022/03/16 02:52:33;;;;;;;73.97;38.13;;;;;;;-139.48;100.00;61774.03;5035107;28;20045;-70
2022/03/16 02:55:17;;;;;;;76.68;36.55;;;;;;;-139.48;100.00;61774.03;5020655;28;20656;-71
2022/03/16 02:58:02;;;;;;;70.50;36.78;;;;;;;-139.48;100.00;61774.03;5035127;28;20091;-72
2022/03/16 03:00:46;;;;;;;78.88;37.05;;;;;;;-139.48;100.00;61774.03;5020160;28;20604;-70
2022/03/16 03:03:30;;;;;;;79.70;37.92;;;;;;;-139.48;100.00;61774.03;5019027;28;20050;-73
2022/03/16 03:06:14;;;;;;;72.82;36.28;;;;;;;-139.48;100.00;61774.03;5019928;28;20095;-72
2022/03/16 03:08:57;;;;;;;78.82;37.20;;;;;;;-139.48;100.00;61774.03;5035010;28;20558;-72
2022/03/16 03:11:41;;;;;;;;;;;;;;;-139.48;100.00;61774.03;5035578;28;20051;-72
2022/03/16 03:14:26;;;;;;;78.18;36.88;;;;;;;-139.48;100.00;61774.03;5019713;28;20335;-72
2022/03/16 03:17:10;;;;;;;74.05;34.67;;;;;;;-139.48;100.00;61774.03;5019822;28;20048;-73
2022/03/16 03:19:54;;;;;;;79.47;36.40;;;;;;;-139.48;100.00;61774.03;5034985;28;20111;-72
2022/03/16 03:22:41;;;;;;;80.32;36.75;;;;;;;-139.48;100.00;61774.03;5019787;28;20409;-72
2022/03/16 03:25:26;;;;;;;77.07;37.05;;;;;;;-139.48;100.00;61774.03;5019826;28;20048;-71
2022/03/16 03:28:10;;;;;;;81.65;38.05;;;;;;;-139.48;100.00;61774.03;5035098;28;20504;-72
2022/03/16 03:30:53;;;;;;;86.00;38.92;;;;;;;-139.48;100.00;61774.03;5019544;28;20095;-72
2022/03/16 03:33:37;;;;;;;86.07;37.55;;;;;;;-139.48;100.00;61774.03;5034430;28;20048;-73
2022/03/16 03:36:21;;;;;;;88.05;39.65;;;;;;;-139.48;100.00;61774.03;5019486;28;20051;-72
2022/03/16 03:39:05;;;;;;;85.65;36.92;;;;;;;-139.48;100.00;61774.03;5034643;28;20052;-72
2022/03/16 03:41:50;;;;;;;87.38;39.83;;;;;;;-139.48;100.00;61774.03;5034443;28;20255;-72
2022/03/16 03:44:37;;;;;;;81.15;36.40;;;;;;;-139.48;100.00;61774.03;5034214;28;20129;-73
2022/03/16 03:47:22;;;;;;;88.68;37.85;;;;;;;-139.48;100.00;61774.03;5034195;28;20129;-73
2022/03/16 03:50:06;;;;;;;86.97;38.78;;;;;;;-139.48;100.00;61774.03;5005481;28;20512;-72
2022/03/16 03:52:51;;;;;;;89.45;39.03;;;;;;;-139.48;100.00;61774.03;5019254;28;20059;-72
2022/03/16 03:55:35;;;;;;;86.68;38.70;;;;;;;-139.48;100.00;61774.03;5019040;28;20123;-72
2022/03/16 03:58:19;;;;;;;86.38;36.92;;;;;;;-139.48;100.00;61774.03;5034018;28;20052;-72
2022/03/16 04:01:04;;;;;;;81.50;37.47;;;;;;;-139.48;100.00;61774.03;5019029;28;20074;-72
2022/03/16 04:03:47;;;;;;;83.63;37.97;;;;;;;-139.48;100.00;61774.03;5033830;28;20053;-72
2022/03/16 04:06:31;;;;;;;86.75;38.25;;;;;;;-139.48;100.00;61774.03;5019072;28;20068;-72
2022/03/16 04:09:15;;;;;;;86.10;38.08;;;;;;;-139.48;100.00;61774.03;5034011;28;20107;-72
2022/03/16 04:11:59;;;;;;;81.68;37.85;;;;;;;-139.48;100.00;61774.03;5033968;28;20043;-72
2022/03/16 04:14:43;;;;;;;86.40;37.00;;;;;;;-139.48;100.00;61774.03;5033751;28;20417;-72
2022/03/16 04:17:27;;;;;;;89.47;36.55;;;;;;;-139.48;100.00;61774.03;5033629;28;20477;-72
2022/03/16 04:20:11;;;;;;;79.97;36.30;;;;;;;-139.48;100.00;61774.03;5033815;28;20477;-72
2022/03/16 04:22:55;;;;;;;89.15;38.17;;;;;;;-139.48;100.00;61774.03;5004741;28;20462;-72
2022/03/16 04:25:39;;;;;;;83.50;37.33;;;;;;;-139.48;100.00;61774.03;5033480;28;20048;-72
2022/03/16 04:28:23;;;;;;;82.25;37.22;;;;;;;-139.48;100.00;61774.03;5018736;28;20048;-72
2022/03/16 04:31:07;;;;;;;81.50;36.65;;;;;;;-139.48;100.00;61774.03;5033509;28;20051;-72
2022/03/16 04:33:52;;;;;;;76.05;36.08;;;;;;;-139.48;100.00;61774.03;5033449;28;20099;-72
2022/03/16 04:36:36;;;;;;;74.13;35.88;;;;;;;-139.48;100.00;61774.03;5033537;28;20114;-72
2022/03/16 04:39:19;;;;;;;70.72;32.58;;;;;;;-139.48;100.00;61774.03;5018720;28;20091;-72
2022/03/16 04:42:04;;;;;;;74.85;35.03;;;;;;;-139.48;100.00;61774.03;5033139;28;20045;-71
2022/03/16 04:44:48;;;;;;;68.95;33.95;;;;;;;-139.48;100.00;61774.03;5033647;28;20417;-72
2022/03/16 04:47:32;;;;;;;67.03;34.15;;;;;;;-139.48;100.00;61774.03;5018145;28;20103;-72
2022/03/16 04:50:16;;;;;;;63.92;32.08;;;;;;;-139.48;100.00;61774.03;5033278;28;20080;-72
2022/03/16 04:53:00;;;;;;;73.13;34.08;;;;;;;-139.48;100.00;61774.03;5018409;28;20056;-72
2022/03/16 04:55:43;;;;;;;72.15;33.47;;;;;;;-139.48;100.00;61774.03;5033011;28;20052;-72
2022/03/16 04:58:27;;;;;;;67.88;33.55;;;;;;;-139.48;100.00;61774.03;5033102;28;20107;-72
2022/03/16 05:01:11;;;;;;;69.75;33.35;;;;;;;-139.48;100.00;61774.03;5033108;28;20079;-72
2022/03/16 05:03:55;;;;;;;64.68;32.67;;;;;;;-139.48;100.00;61774.03;5033145;28;20095;-72
2022/03/16 05:06:39;;;;;;;68.25;34.63;;;;;;;-139.48;100.00;61774.03;5033096;28;20099;-72
2022/03/16 05:09:23;;;;;;;69.35;33.60;;;;;;;-139.48;100.00;61774.03;5018073;28;20088;-72
2022/03/16 05:12:07;;;;;;;72.75;33.67;;;;;;;-139.48;100.00;61774.03;5018025;28;20143;-72
2022/03/16 05:14:51;;;;;;;65.70;32.65;;;;;;;-139.48;100.00;61774.03;5033982;28;20064;-72
2022/03/16 05:17:35;;;;;;;64.18;33.40;;;;;;;-139.48;100.00;61774.03;5017904;28;20068;-72
2022/03/16 05:20:19;;;;;;;62.58;32.38;;;;;;;-139.48;100.00;61774.03;5033058;28;20126;-72
2022/03/16 05:23:03;;;;;;;64.57;31.65;;;;;;;-139.48;100.00;61774.03;5017987;28;20048;-72
2022/03/16 05:25:47;;;;;;;;;;;;;;;-139.48;100.00;61774.03;5018320;28;20048;-73
2022/03/16 05:28:31;;;;;;;54.23;28.03;;;;;;;-139.48;100.00;61774.03;5024242;28;19938;-72
2022/03/16 05:31:15;;;;;;;57.25;30.98;;;;;;;-139.48;100.00;61774.03;5039352;28;20095;-73
2022/03/16 05:33:59;;;;;;;52.42;28.58;;;;;;;-139.48;100.00;61774.03;5039216;28;20083;-73
2022/03/16 05:36:43;;;;;;;55.20;28.20;;;;;;;-139.48;100.00;61774.03;5039338;28;20049;-72
2022/03/16 05:39:26;;;;;;;55.28;30.13;;;;;;;-139.48;100.00;61774.03;5024318;28;20051;-72
2022/03/16 05:42:10;;;;;;;50.53;27.65;;;;;;;-139.48;100.00;61774.03;5023931;28;20052;-72
2022/03/16 05:44:54;;;;;;;54.60;29.70;;;;;;;-139.48;100.00;61774.03;5024022;28;20087;-72
2022/03/16 05:47:39;;;;;;;49.78;26.85;;;;;;;-139.48;100.00;61774.03;5024221;28;20060;-72
2022/03/16 05:50:28;;;;;;;49.15;26.10;;;;;;;-139.48;100.00;61774.03;5010245;28;20064;-72
2022/03/16 05:53:14;;;;;;;49.47;28.17;;;;;;;-139.48;100.00;61774.03;5039309;28;20469;-72
2022/03/16 05:55:57;;;;;;;54.22;27.83;;;;;;;-139.48;100.00;61774.03;5024398;28;20052;-73
2022/03/16 05:58:41;;;;;;;49.45;26.42;;;;;;;-139.48;100.00;61774.03;5038981;28;20096;-72
2022/03/16 06:01:25;;;;;;;;;;;;;;;-139.48;100.00;61774.03;5024569;28;20552;-72
2022/03/16 06:04:09;;;;;;;45.70;26.45;;;;;;;-139.48;100.00;61774.03;5023855;28;19955;-72
2022/03/16 06:06:53;;;;;;;;;;;;;;;-139.48;100.00;61774.03;5039505;28;20050;-73
2022/03/16 06:09:38;;;;;;;53.37;27.67;;;;;;;-139.48;100.00;61774.03;5038869;28;19936;-73
2022/03/16 06:12:22;;;;;;;44.03;25.63;;;;;;;-139.48;100.00;61774.03;5024139;28;20679;-72
2022/03/16 06:15:06;;;;;;;45.97;26.70;;;;;;;-139.48;100.00;61774.03;5039191;28;20048;-73
2022/03/16 06:17:58;;;;;;;47.75;25.83;;;;;;;-139.48;100.00;61774.03;5038971;28;20053;-73
2022/03/16 06:20:42;;;;;;;48.38;26.05;;;;;;;-139.48;100.00;61774.03;5023997;28;20044;-72
2022/03/16 06:23:26;;;;;;;48.53;27.65;;;;;;;-139.48;100.00;61774.03;5024094;28;20059;-72
2022/03/16 06:26:11;;;;;;;46.50;25.08;;;;;;;-139.48;100.00;61774.03;5038998;28;20044;-72
2022/03/16 06:28:54;;;;;;;47.40;26.98;;;;;;;-139.48;100.00;61774.03;5038677;28;20095;-73
2022/03/16 06:31:38;;;;;;;44.33;24.25;;;;;;;-139.48;100.00;61774.03;5023819;28;20092;-72
2022/03/16 06:34:23;;;;;;;42.47;24.63;;;;;;;-139.48;100.00;61774.03;5010198;28;20052;-72
2022/03/16 06:37:06;;;;;;;48.10;26.70;;;;;;;-139.48;100.00;61774.03;5023822;28;20417;-73
2022/03/16 06:39:50;;;;;;;43.38;25.45;;;;;;;-139.48;100.00;61774.03;5020849;28;20468;-73
2022/03/16 06:42:34;;;;;;;44.97;24.95;;;;;;;-139.48;100.00;61774.03;5035315;28;20114;-72
2022/03/16 06:45:19;;;;;;;46.72;27.20;;;;;;;-139.48;100.00;61774.03;5020848;28;20429;-73
2022/03/16 06:48:04;;;;;;;44.85;26.90;;;;;;;-139.48;100.00;61774.03;5035576;28;20453;-72
2022/03/16 06:50:47;;;;;;;42.42;25.30;;;;;;;-139.48;100.00;61774.03;5020533;28;20048;-72
2022/03/16 06:53:31;;;;;;;41.60;24.63;;;;;;;-139.48;100.00;61774.03;5035197;28;20099;-72
2022/03/16 06:56:15;;;;;;;44.05;24.58;;;;;;;-139.48;100.00;61774.03;5006561;28;20508;-73
2022/03/16 06:58:59;;;;;;;44.85;26.70;;;;;;;-139.48;100.00;61774.03;5020438;28;20075;-72
2022/03/16 07:01:43;;;;;;;43.22;26.55;;;;;;;-139.48;100.00;61774.03;5035023;28;20133;-72
2022/03/16 07:04:27;;;;;;;47.97;27.17;;;;;;;-139.48;100.00;61774.03;5020040;28;20049;-72
2022/03/16 07:07:11;;;;;;;120.13;65.32;;;;;;;-139.48;100.00;61774.03;5035283;28;20151;-73
2022/03/16 07:09:55;;;;;;;47.45;29.13;;;;;;;-139.48;100.00;61774.03;5019940;28;20053;-72
2022/03/16 07:12:39;;;;;;;56.30;35.65;;;;;;;-139.48;100.00;61774.03;5034816;28;20095;-72
2022/03/16 07:15:23;;;;;;;46.08;27.95;;;;;;;-139.48;100.00;61774.03;5019824;28;20520;-73
2022/03/16 07:18:09;;;;;;;42.10;25.23;;;;;;;-139.48;100.00;61774.03;5019897;28;20138;-72
2022/03/16 07:20:53;;;;;;;43.08;25.35;;;;;;;-139.48;100.00;61774.03;5034918;28;20090;-72
2022/03/16 07:23:37;;;;;;;40.05;24.88;;;;;;;-139.48;100.00;61774.03;5019547;28;20052;-72
2022/03/16 07:26:21;;;;;;;44.97;25.02;;;;;;;-139.48;100.00;61774.03;5019660;28;20061;-72
2022/03/16 07:29:06;;;;;;;41.20;25.77;;;;;;;-139.48;100.00;61774.03;5019775;28;20125;-72
2022/03/16 07:31:50;;;;;;;44.05;25.75;;;;;;;-139.48;100.00;61774.03;5019727;28;20049;-72
2022/03/16 07:34:34;;;;;;;40.70;25.17;;;;;;;-139.48;100.00;61774.03;5034555;28;20413;-72
2022/03/16 07:37:19;;;;;;;43.40;24.60;;;;;;;-139.48;100.00;61774.03;5019879;28;20052;-72
2022/03/16 07:40:03;;;;;;;40.95;24.98;;;;;;;-139.48;100.00;61774.03;5019558;28;20107;-73
2022/03/16 07:42:49;;;;;;;42.20;24.75;;;;;;;-139.48;100.00;61774.03;5019502;28;20049;-72
2022/03/16 07:45:34;;;;;;;38.35;23.33;;;;;;;-139.48;100.00;61774.03;5034263;28;20118;-72
2022/03/16 07:48:18;;;;;;;42.63;25.10;;;;;;;-139.48;100.00;61774.03;5005873;28;20144;-72
2022/03/16 07:51:02;;;;;;;42.30;25.38;;;;;;;-139.48;100.00;61774.03;5034169;28;20040;-72
2022/03/16 07:53:46;;;;;;;40.30;25.30;;;;;;;-139.48;100.00;61774.03;5019045;28;20056;-72
2022/03/16 07:56:30;;;;;;;43.03;25.75;;;;;;;-139.48;100.00;61774.03;5019249;28;20071;-72
2022/03/16 07:59:15;;;;;;;;;;;;;;;-139.48;100.00;61774.03;5006048;28;20055;-73
2022/03/16 08:01:59;;;;;;;185.55;114.43;;;;;;;-139.48;100.00;61774.03;5005249;28;20301;-73
2022/03/16 08:04:43;;;;;;;58.72;36.35;;;;;;;-139.48;100.00;61774.03;5034425;28;20048;-73
2022/03/16 08:07:27;;;;;;;53.58;37.53;;;;;;;-139.48;100.00;61774.03;5034069;28;20048;-72
2022/03/16 08:10:11;;;;;;;43.10;24.92;;;;;;;-139.48;100.00;61774.03;5018793;28;20050;-73
2022/03/16 08:12:55;;;;;;;35.95;21.58;;;;;;;-139.48;100.00;61774.03;5033859;28;20437;-72
2022/03/16 08:15:39;;;;;;;37.97;21.48;;;;;;;-139.48;100.00;61774.03;5018805;28;20471;-73
2022/03/16 08:18:23;;;;;;;37.15;23.13;;;;;;;-139.48;100.00;61774.03;5018685;28;20533;-72
2022/03/16 08:21:07;;;;;;;47.65;30.38;;;;;;;-139.48;100.00;61774.03;5018538;28;20045;-73
2022/03/16 08:23:51;;;;;;;94.53;60.97;;;;;;;-139.48;100.00;61774.03;5018738;28;20048;-72
2022/03/16 08:26:36;;;;;;;41.85;25.65;;;;;;;-139.48;100.00;61774.03;5004954;28;20136;-72
2022/03/16 08:29:20;;;;;;;44.60;26.20;;;;;;;-139.48;100.00;61774.03;5018771;28;20440;-72
2022/03/16 08:32:04;;;;;;;58.95;38.15;;;;;;;-139.48;100.00;61774.03;5033646;28;20055;-72
2022/03/16 08:34:48;;;;;;;40.88;26.08;;;;;;;-139.48;100.00;61774.03;5019113;28;20187;-72
2022/03/16 08:37:33;;;;;;;42.20;26.00;;;;;;;-139.48;100.00;61774.03;5033792;28;20048;-73
2022/03/16 08:40:17;;;;;;;41.38;26.17;;;;;;;-139.48;100.00;61774.03;5033707;28;20402;-73
2022/03/16 08:43:01;;;;;;;37.67;22.95;;;;;;;-139.48;100.00;61774.03;5018379;28;20102;-72
2022/03/16 08:45:45;;;;;;;71.63;45.47;;;;;;;-139.48;100.00;61774.03;5033546;28;20044;-72
2022/03/16 08:48:30;;;;;;;53.42;34.53;;;;;;;-139.48;100.00;61774.03;5018620;28;20117;-73
2022/03/16 08:51:14;;;;;;;46.08;31.35;;;;;;;-139.48;100.00;61774.03;5018268;28;20044;-72
2022/03/16 08:53:58;;;;;;;45.60;27.27;;;;;;;-139.48;100.00;61774.03;5033554;28;20591;-72
2022/03/16 08:56:43;;;;;;;43.20;25.65;;;;;;;-139.48;100.00;61774.03;5018508;28;20381;-73
2022/03/16 08:59:27;;;;;;;42.75;27.95;;;;;;;-139.48;100.00;61774.03;5033721;28;20126;-72
2022/03/16 09:02:11;;;;;;;48.15;27.70;;;;;;;-139.48;100.00;61774.03;5003739;28;20048;-72
2022/03/16 09:04:55;;;;;;;45.63;27.58;;;;;;;-139.48;100.00;61774.03;5018222;28;20190;-73
2022/03/16 09:07:39;;;;;;;51.88;30.50;;;;;;;-139.48;100.00;61774.03;5033326;28;20056;-72
2022/03/16 09:10:22;;;;;;;42.55;26.33;;;;;;;-139.48;100.00;61774.03;5033268;28;20468;-72
2022/03/16 09:13:06;;;;;;;68.45;44.55;;;;;;;-139.48;100.00;61774.03;5032879;28;20536;-72
2022/03/16 09:15:51;;;;;;;48.78;30.50;;;;;;;-139.48;100.00;61774.03;5017784;28;20099;-72
2022/03/16 09:18:35;;;;;;;45.53;31.33;;;;;;;-139.48;100.00;61774.03;5018288;28;20048;-73
2022/03/16 09:21:19;;;;;;;50.60;31.70;;;;;;;-139.48;100.00;61774.03;5033101;28;20052;-72
2022/03/16 09:24:03;;;;;;;43.65;27.05;;;;;;;-139.48;100.00;61774.03;5033076;28;20125;-72
2022/03/16 09:26:47;;;;;;;48.22;28.83;;;;;;;-139.48;100.00;61774.03;5033178;28;20413;-72
2022/03/16 09:29:31;;;;;;;44.83;28.52;;;;;;;-139.48;100.00;61774.03;5018114;28;20099;-72
2022/03/16 09:32:15;;;;;;;43.92;27.10;;;;;;;-139.48;100.00;61774.03;5018154;28;20048;-72
2022/03/16 09:35:00;;;;;;;65.03;40.53;;;;;;;-139.48;100.00;61774.03;5018300;28;20052;-73
2022/03/16 09:37:44;;;;;;;54.17;35.00;;;;;;;-139.48;100.00;61774.03;5018039;28;20052;-72
2022/03/16 09:40:29;;;;;;;38.60;25.23;;;;;;;-139.48;100.00;61774.03;5017754;28;20413;-73
2022/03/16 09:43:17;;;;;;;47.72;26.08;;;;;;;-139.48;100.00;61774.03;5032894;28;20099;-73
2022/03/16 09:46:04;;;;;;;43.28;24.98;;;;;;;-139.48;100.00;61774.03;5004138;28;20155;-72
2022/03/16 09:48:48;;;;;;;44.67;28.92;;;;;;;-139.48;100.00;61774.03;5032890;28;20496;-73
2022/03/16 09:51:35;;;;;;;56.70;37.13;;;;;;;-139.48;100.00;61774.03;5033026;28;20047;-72
2022/03/16 09:54:20;;;;;;;42.42;27.02;;;;;;;-139.48;100.00;61774.03;5017927;28;20389;-73
2022/03/16 09:57:04;;;;;;;55.05;36.22;;;;;;;-139.48;100.00;61774.03;5032578;28;20478;-73
2022/03/16 09:59:48;;;;;;;47.42;28.73;;;;;;;-139.48;100.00;61774.03;5032632;28;20057;-72
2022/03/16 10:02:32;;;;;;;46.88;29.80;;;;;;;-139.48;100.00;61774.03;5032426;28;20048;-72
2022/03/16 10:05:16;;;;;;;43.15;26.85;;;;;;;-139.48;100.00;61774.03;5017564;28;20100;-72
2022/03/16 10:08:02;;;;;;;;;;;;;;;-139.48;100.00;61774.03;5018188;28;20500;-73
2022/03/16 10:13:52;;;;;;;42.65;27.05;;;;;;;-139.48;100.00;61774.03;5034257;28;20128;-73
2022/03/16 10:17:43;;;;;;;38.90;24.90;;;;;;;-139.48;100.00;61774.03;5036236;28;20067;-73
2022/03/16 10:19:43;;;;;;;41.10;26.35;;;;;;;-139.48;100.00;61774.03;5036567;28;20567;-73
2022/03/16 10:22:31;;;;;;;37.03;24.00;;;;;;;-139.48;100.00;61774.03;5007054;28;20053;-73
2022/03/16 10:25:17;;;;;;;34.63;22.27;;;;;;;-139.48;100.00;61774.03;5007730;28;20055;-73
2022/03/16 10:28:10;;;;;;;42.45;26.60;;;;;;;-139.48;100.00;61774.03;5021161;28;20056;-73
2022/03/16 10:31:03;;;;;;;37.58;23.13;;;;;;;-139.48;100.00;61774.03;5021550;28;20148;-72
2022/03/16 10:33:53;;;;;;;95.80;62.33;;;;;;;-139.48;100.00;61774.03;5035876;28;20044;-71
2022/03/16 10:36:41;;;;;;;50.97;39.85;;;;;;;-139.48;100.00;61774.03;5036010;28;20044;-73
2022/03/16 10:39:33;;;;;;;42.42;28.85;;;;;;;-139.48;100.00;61774.03;5035595;28;20512;-73
2022/03/16 10:48:25;;;;;;;39.03;25.75;;;;;;;-139.48;100.00;61774.03;5023606;28;20052;-71
2022/03/16 10:51:12;;;;;;;50.85;37.67;;;;;;;-139.48;100.00;61774.03;5020512;28;20493;-70
2022/03/16 10:53:57;;;;;;;41.20;29.77;;;;;;;-139.48;100.00;61774.03;5020711;28;20107;-70
2022/03/16 10:56:42;;;;;;;46.72;33.60;;;;;;;-139.48;100.00;61774.03;5020640;28;20067;-70
2022/03/16 10:59:29;;;;;;;37.35;27.02;;;;;;;-139.48;100.00;61774.03;5020648;28;20099;-70
2022/03/16 11:02:14;;;;;;;46.30;32.03;;;;;;;-139.48;100.00;61774.03;5035491;28;20119;-72
2022/03/16 11:04:57;;;;;;;45.03;35.63;;;;;;;-139.48;100.00;61774.03;5020259;28;20063;-70
2022/03/16 11:07:41;;;;;;;34.83;27.30;;;;;;;-139.48;100.00;61774.03;5020197;28;20179;-70
2022/03/16 11:10:25;;;;;;;36.92;25.25;;;;;;;-139.48;100.00;61774.03;5006382;28;20139;-70
2022/03/16 11:13:28;;;;;;;;;;;;;;;-139.48;100.00;61774.03;5035493;28;20053;-71
2022/03/16 11:16:12;;;;;;;32.03;22.63;;;;;;;-139.48;100.00;61774.03;5023881;28;19963;-72
2022/03/16 11:18:58;;;;;;;41.88;30.52;;;;;;;-139.48;100.00;61774.03;5019922;28;20048;-72
2022/03/16 11:21:51;;;;;;;44.05;30.70;;;;;;;-139.48;100.00;61774.03;5019949;28;20147;-72
2022/03/16 11:24:40;;;;;;;56.17;43.25;;;;;;;-139.48;100.00;61774.03;5005238;28;20405;-71
2022/03/16 11:27:43;;;;;;;34.67;21.63;;;;;;;-139.48;100.00;61774.03;5020163;28;20052;-72
2022/03/16 11:30:33;;;;;;;33.17;22.33;;;;;;;-139.48;100.00;61774.03;5035399;28;20064;-72
2022/03/16 11:33:18;;;;;;;80.13;51.92;;;;;;;-139.48;100.00;61774.03;5035455;28;20084;-75
2022/03/16 11:36:02;;;;;;;66.32;47.90;;;;;;;-139.48;100.00;61774.03;5020264;28;20516;-74
2022/03/16 11:38:47;;;;;;;37.33;24.83;;;;;;;-139.48;100.00;61774.03;5034936;28;20057;-74
2022/03/16 11:41:33;;;;;;;30.95;22.83;;;;;;;-139.48;100.00;61774.03;5019904;28;20142;-73
2022/03/16 11:44:25;;;;;;;40.78;29.83;;;;;;;-139.48;100.00;61774.03;5034883;28;20048;-73
2022/03/16 11:47:09;;;;;;;30.70;22.33;;;;;;;-139.48;100.00;61774.03;5034957;28;20140;-73
2022/03/16 11:50:17;;;;;;;42.25;30.67;;;;;;;-139.48;100.00;61774.03;5034820;28;20559;-73
2022/03/16 11:53:05;;;;;;;49.65;36.45;;;;;;;-139.48;100.00;61774.03;5005551;28;20043;-73
2022/03/16 11:55:50;;;;;;;58.17;41.67;;;;;;;-139.48;100.00;61774.03;5019736;28;20055;-73
2022/03/16 11:58:39;;;;;;;35.38;22.10;;;;;;;-139.48;100.00;61774.03;5034519;28;20083;-73
2022/03/16 12:01:27;;;;;;;32.78;22.90;;;;;;;-139.48;100.00;61774.03;5034356;28;20460;-73
2022/03/16 12:04:14;;;;;;;40.65;28.88;;;;;;;-139.48;100.00;61774.03;5034241;28;20048;-73
2022/03/16 12:07:09;;;;;;;33.05;23.52;;;;;;;-139.48;100.00;61774.03;5019754;28;20060;-73
2022/03/16 12:10:01;;;;;;;40.22;27.80;;;;;;;-139.48;100.00;61774.03;5034611;28;20051;-72
2022/03/16 12:12:59;;;;;;;29.98;21.00;;;;;;;-139.48;100.00;61774.03;5034332;28;20048;-71
2022/03/16 12:15:46;;;;;;;35.50;21.98;;;;;;;-139.48;100.00;61774.03;5021339;28;20048;-72
2022/03/16 12:18:31;;;;;;;39.20;24.98;;;;;;;-139.48;100.00;61774.03;5034135;28;20052;-72
2022/03/16 12:21:14;;;;;;;37.80;26.35;;;;;;;-139.48;100.00;61774.03;5019054;28;20567;-73
2022/03/16 12:23:58;;;;;;;54.30;35.25;;;;;;;-139.48;100.00;61774.03;5034471;28;20079;-73